sensor_id;sensor_type;location;lat;lon;timestamp;pressure;altitude;pressure_sealevel;temperature;humidity
31532;BME280;23787;52.180;5.288;2022-09-09T00:04:35;100580.0;;;15.6;100.0
31532;BME280;23787;52.180;5.288;2022-09-09T00:24:36;100570.0;;;15.5;100.0
31532;BME280;23787;52.180;5.288;2022-09-09T00:34:34;100560.0;;;15.7;100.0
31532;BME280;23787;52.180;5.288;2022-09-09T00:39:36;100560.0;;;15.4;100.0
31532;BME280;23787;52.180;5.288;2022-09-09T00:49:37;100560.0;;;15.2;100.0
31532;BME280;23787;52.180;5.288;2022-09-09T01:09:37;100570.0;;;15.0;100.0
31532;BME280;23787;52.180;5.288;2022-09-09T01:14:38;100570.0;;;15.2;100.0
31532;BME280;23787;52.180;5.288;2022-09-09T01:19:37;100560.0;;;15.1;100.0
31532;BME280;23787;52.180;5.288;2022-09-09T01:29:34;100550.0;;;14.9;100.0
31532;BME280;23787;52.180;5.288;2022-09-09T01:49:34;100550.0;;;14.6;100.0
31532;BME280;23787;52.180;5.288;2022-09-09T01:54:34;100550.0;;;14.9;100.0
31532;BME280;23787;52.180;5.288;2022-09-09T01:59:42;100550.0;;;14.6;100.0
31532;BME280;23787;52.180;5.288;2022-09-09T02:14:35;100530.0;;;14.5;100.0
31532;BME280;23787;52.180;5.288;2022-09-09T02:19:35;100530.0;;;14.6;100.0
31532;BME280;23787;52.180;5.288;2022-09-09T02:24:35;100520.0;;;14.5;100.0
31532;BME280;23787;52.180;5.288;2022-09-09T02:29:35;100520.0;;;14.6;100.0
31532;BME280;23787;52.180;5.288;2022-09-09T02:39:34;100520.0;;;14.5;100.0
31532;BME280;23787;52.180;5.288;2022-09-09T02:44:34;100530.0;;;14.4;100.0
31532;BME280;23787;52.180;5.288;2022-09-09T02:49:37;100520.0;;;14.3;100.0
31532;BME280;23787;52.180;5.288;2022-09-09T02:54:35;100520.0;;;14.4;100.0
31532;BME280;23787;52.180;5.288;2022-09-09T02:59:34;100520.0;;;14.5;100.0
31532;BME280;23787;52.180;5.288;2022-09-09T03:04:34;100520.0;;;14.6;100.0
31532;BME280;23787;52.180;5.288;2022-09-09T03:09:34;100520.0;;;14.4;100.0
31532;BME280;23787;52.180;5.288;2022-09-09T03:29:34;100510.0;;;14.3;100.0
31532;BME280;23787;52.180;5.288;2022-09-09T03:34:34;100510.0;;;14.2;100.0
31532;BME280;23787;52.180;5.288;2022-09-09T03:39:34;100500.0;;;14.7;100.0
31532;BME280;23787;52.180;5.288;2022-09-09T03:49:34;100510.0;;;14.8;100.0
31532;BME280;23787;52.180;5.288;2022-09-09T03:54:34;100500.0;;;14.4;100.0
31532;BME280;23787;52.180;5.288;2022-09-09T03:59:34;100500.0;;;14.2;100.0
31532;BME280;23787;52.180;5.288;2022-09-09T04:04:34;100500.0;;;14.4;100.0
31532;BME280;23787;52.180;5.288;2022-09-09T04:09:34;100510.0;;;14.3;100.0
31532;BME280;23787;52.180;5.288;2022-09-09T04:24:34;100490.0;;;14.2;100.0
31532;BME280;23787;52.180;5.288;2022-09-09T04:29:34;100490.0;;;14.7;100.0
31532;BME280;23787;52.180;5.288;2022-09-09T04:34:34;100490.0;;;14.6;100.0
31532;BME280;23787;52.180;5.288;2022-09-09T04:44:34;100480.0;;;14.4;100.0
31532;BME280;23787;52.180;5.288;2022-09-09T04:49:34;100480.0;;;14.3;100.0
31532;BME280;23787;52.180;5.288;2022-09-09T04:54:34;100480.0;;;14.5;100.0
31532;BME280;23787;52.180;5.288;2022-09-09T04:59:34;100480.0;;;14.4;100.0
31532;BME280;23787;52.180;5.288;2022-09-09T05:09:34;100480.0;;;14.2;100.0
31532;BME280;23787;52.180;5.288;2022-09-09T05:19:34;100470.0;;;13.9;100.0
31532;BME280;23787;52.180;5.288;2022-09-09T05:24:34;100470.0;;;14.3;100.0
31532;BME280;23787;52.180;5.288;2022-09-09T05:29:34;100470.0;;;14.0;100.0
31532;BME280;23787;52.180;5.288;2022-09-09T05:34:34;100480.0;;;14.1;100.0
31532;BME280;23787;52.180;5.288;2022-09-09T05:39:34;100480.0;;;14.2;100.0
31532;BME280;23787;52.180;5.288;2022-09-09T05:44:34;100480.0;;;14.3;100.0
31532;BME280;23787;52.180;5.288;2022-09-09T05:59:34;100490.0;;;14.4;100.0
31532;BME280;23787;52.180;5.288;2022-09-09T06:09:34;100490.0;;;14.6;100.0
31532;BME280;23787;52.180;5.288;2022-09-09T06:14:34;100490.0;;;14.9;100.0
31532;BME280;23787;52.180;5.288;2022-09-09T06:19:35;100490.0;;;14.7;100.0
31532;BME280;23787;52.180;5.288;2022-09-09T06:24:34;100480.0;;;14.8;100.0
31532;BME280;23787;52.180;5.288;2022-09-09T06:29:34;100480.0;;;14.9;100.0
31532;BME280;23787;52.180;5.288;2022-09-09T06:34:34;100470.0;;;16.5;100.0
31532;BME280;23787;52.180;5.288;2022-09-09T06:39:34;100460.0;;;17.0;100.0
31532;BME280;23787;52.180;5.288;2022-09-09T06:44:34;100460.0;;;16.0;100.0
31532;BME280;23787;52.180;5.288;2022-09-09T06:54:34;100460.0;;;16.4;100.0
31532;BME280;23787;52.180;5.288;2022-09-09T06:59:34;100460.0;;;16.5;100.0
31532;BME280;23787;52.180;5.288;2022-09-09T07:04:34;100450.0;;;17.9;100.0
31532;BME280;23787;52.180;5.288;2022-09-09T07:09:34;100460.0;;;18.6;100.0
31532;BME280;23787;52.180;5.288;2022-09-09T07:14:34;100460.0;;;17.7;100.0
31532;BME280;23787;52.180;5.288;2022-09-09T07:19:34;100460.0;;;17.6;100.0
31532;BME280;23787;52.180;5.288;2022-09-09T07:24:34;100460.0;;;17.5;100.0
31532;BME280;23787;52.180;5.288;2022-09-09T07:29:34;100470.0;;;18.3;100.0
31532;BME280;23787;52.180;5.288;2022-09-09T07:34:34;100460.0;;;17.8;100.0
31532;BME280;23787;52.180;5.288;2022-09-09T07:39:34;100460.0;;;18.5;100.0
31532;BME280;23787;52.180;5.288;2022-09-09T07:44:34;100450.0;;;18.1;100.0
31532;BME280;23787;52.180;5.288;2022-09-09T07:49:34;100460.0;;;17.6;100.0
31532;BME280;23787;52.180;5.288;2022-09-09T07:54:34;100460.0;;;17.9;100.0
31532;BME280;23787;52.180;5.288;2022-09-09T07:59:34;100460.0;;;17.8;100.0
31532;BME280;23787;52.180;5.288;2022-09-09T08:04:34;100460.0;;;17.7;100.0
31532;BME280;23787;52.180;5.288;2022-09-09T08:09:34;100460.0;;;17.8;100.0
31532;BME280;23787;52.180;5.288;2022-09-09T08:14:34;100470.0;;;17.7;100.0
31532;BME280;23787;52.180;5.288;2022-09-09T08:19:34;100470.0;;;17.8;100.0
31532;BME280;23787;52.180;5.288;2022-09-09T08:24:34;100470.0;;;17.7;100.0
31532;BME280;23787;52.180;5.288;2022-09-09T08:29:34;100470.0;;;17.9;100.0
31532;BME280;23787;52.180;5.288;2022-09-09T08:34:34;100480.0;;;17.3;100.0
31532;BME280;23787;52.180;5.288;2022-09-09T08:39:34;100480.0;;;17.7;100.0
31532;BME280;23787;52.180;5.288;2022-09-09T08:49:41;100480.0;;;17.9;100.0
31532;BME280;23787;52.180;5.288;2022-09-09T08:59:34;100490.0;;;18.2;100.0
31532;BME280;23787;52.180;5.288;2022-09-09T09:04:40;100490.0;;;17.7;100.0
31532;BME280;23787;52.180;5.288;2022-09-09T09:09:36;100500.0;;;17.8;100.0
31532;BME280;23787;52.180;5.288;2022-09-09T09:14:34;100500.0;;;17.5;100.0
31532;BME280;23787;52.180;5.288;2022-09-09T09:19:34;100500.0;;;17.4;100.0
31532;BME280;23787;52.180;5.288;2022-09-09T09:24:35;100500.0;;;18.2;100.0
31532;BME280;23787;52.180;5.288;2022-09-09T09:29:34;100500.0;;;17.9;100.0
31532;BME280;23787;52.180;5.288;2022-09-09T09:34:34;100510.0;;;17.5;100.0
31532;BME280;23787;52.180;5.288;2022-09-09T09:39:34;100510.0;;;17.9;100.0
31532;BME280;23787;52.180;5.288;2022-09-09T09:44:34;100500.0;;;17.5;100.0
31532;BME280;23787;52.180;5.288;2022-09-09T09:49:34;100500.0;;;17.7;100.0
31532;BME280;23787;52.180;5.288;2022-09-09T09:54:37;100500.0;;;17.5;100.0
31532;BME280;23787;52.180;5.288;2022-09-09T09:59:35;100520.0;;;17.3;100.0
31532;BME280;23787;52.180;5.288;2022-09-09T10:09:34;100520.0;;;17.0;100.0
31532;BME280;23787;52.180;5.288;2022-09-09T10:14:36;100510.0;;;17.5;100.0
31532;BME280;23787;52.180;5.288;2022-09-09T10:19:35;100510.0;;;17.4;100.0
31532;BME280;23787;52.180;5.288;2022-09-09T10:39:35;100530.0;;;16.9;100.0
31532;BME280;23787;52.180;5.288;2022-09-09T10:44:41;100530.0;;;17.3;100.0
31532;BME280;23787;52.180;5.288;2022-09-09T10:49:45;100510.0;;;18.5;100.0
31532;BME280;23787;52.180;5.288;2022-09-09T10:54:38;100510.0;;;17.7;100.0
31532;BME280;23787;52.180;5.288;2022-09-09T10:59:35;100510.0;;;17.8;100.0
31532;BME280;23787;52.180;5.288;2022-09-09T11:04:35;100500.0;;;18.3;100.0
31532;BME280;23787;52.180;5.288;2022-09-09T11:09:36;100500.0;;;18.6;100.0
31532;BME280;23787;52.180;5.288;2022-09-09T11:14:36;100500.0;;;19.0;100.0
31532;BME280;23787;52.180;5.288;2022-09-09T11:19:35;100490.0;;;18.4;100.0
31532;BME280;23787;52.180;5.288;2022-09-09T11:24:35;100490.0;;;18.7;100.0
31532;BME280;23787;52.180;5.288;2022-09-09T11:34:37;100490.0;;;19.1;100.0
31532;BME280;23787;52.180;5.288;2022-09-09T11:39:37;100480.0;;;19.2;100.0
31532;BME280;23787;52.180;5.288;2022-09-09T11:44:34;100480.0;;;19.1;100.0
31532;BME280;23787;52.180;5.288;2022-09-09T11:49:39;100480.0;;;19.2;100.0
31532;BME280;23787;52.180;5.288;2022-09-09T11:54:34;100470.0;;;19.4;100.0
31532;BME280;23787;52.180;5.288;2022-09-09T11:59:34;100490.0;;;18.6;100.0
31532;BME280;23787;52.180;5.288;2022-09-09T12:04:35;100490.0;;;18.4;100.0
31532;BME280;23787;52.180;5.288;2022-09-09T12:09:40;100490.0;;;17.9;100.0
31532;BME280;23787;52.180;5.288;2022-09-09T12:14:35;100490.0;;;17.8;100.0
31532;BME280;23787;52.180;5.288;2022-09-09T12:19:34;100480.0;;;18.3;100.0
31532;BME280;23787;52.180;5.288;2022-09-09T12:24:35;100490.0;;;18.0;100.0
31532;BME280;23787;52.180;5.288;2022-09-09T12:29:37;100490.0;;;18.3;100.0
31532;BME280;23787;52.180;5.288;2022-09-09T12:34:36;100490.0;;;17.7;100.0
31532;BME280;23787;52.180;5.288;2022-09-09T12:39:36;100490.0;;;18.2;100.0
31532;BME280;23787;52.180;5.288;2022-09-09T12:44:34;100480.0;;;18.1;100.0
31532;BME280;23787;52.180;5.288;2022-09-09T12:49:35;100480.0;;;18.5;100.0
31532;BME280;23787;52.180;5.288;2022-09-09T12:54:35;100480.0;;;19.2;100.0
31532;BME280;23787;52.180;5.288;2022-09-09T12:59:35;100480.0;;;19.8;100.0
31532;BME280;23787;52.180;5.288;2022-09-09T13:04:34;100460.0;;;20.0;100.0
31532;BME280;23787;52.180;5.288;2022-09-09T13:14:35;100460.0;;;19.4;100.0
31532;BME280;23787;52.180;5.288;2022-09-09T13:24:34;100460.0;;;19.2;100.0
31532;BME280;23787;52.180;5.288;2022-09-09T13:29:34;100460.0;;;19.4;100.0
31532;BME280;23787;52.180;5.288;2022-09-09T13:34:34;100460.0;;;19.0;100.0
31532;BME280;23787;52.180;5.288;2022-09-09T13:39:35;100470.0;;;19.2;100.0
31532;BME280;23787;52.180;5.288;2022-09-09T13:44:35;100470.0;;;18.9;100.0
31532;BME280;23787;52.180;5.288;2022-09-09T13:49:34;100470.0;;;18.8;100.0
31532;BME280;23787;52.180;5.288;2022-09-09T13:55:50;100460.0;;;19.5;100.0
31532;BME280;23787;52.180;5.288;2022-09-09T14:00:50;100460.0;;;19.2;100.0
31532;BME280;23787;52.180;5.288;2022-09-09T14:05:50;100460.0;;;19.4;100.0
31532;BME280;23787;52.180;5.288;2022-09-09T14:10:50;100470.0;;;19.2;100.0
31532;BME280;23787;52.180;5.288;2022-09-09T14:20:50;100460.0;;;19.5;100.0
31532;BME280;23787;52.180;5.288;2022-09-09T14:25:50;100470.0;;;19.2;100.0
31532;BME280;23787;52.180;5.288;2022-09-09T14:30:50;100470.0;;;18.9;100.0
31532;BME280;23787;52.180;5.288;2022-09-09T14:35:55;100470.0;;;19.0;100.0
31532;BME280;23787;52.180;5.288;2022-09-09T14:40:50;100470.0;;;18.9;100.0
31532;BME280;23787;52.180;5.288;2022-09-09T14:45:50;100460.0;;;18.4;100.0
31532;BME280;23787;52.180;5.288;2022-09-09T14:50:50;100460.0;;;18.8;100.0
31532;BME280;23787;52.180;5.288;2022-09-09T14:55:50;100460.0;;;18.7;100.0
31532;BME280;23787;52.180;5.288;2022-09-09T15:00:50;100460.0;;;19.4;100.0
31532;BME280;23787;52.180;5.288;2022-09-09T15:05:50;100450.0;;;19.8;100.0
31532;BME280;23787;52.180;5.288;2022-09-09T15:10:50;100460.0;;;19.7;100.0
31532;BME280;23787;52.180;5.288;2022-09-09T15:15:50;100470.0;;;19.2;100.0
31532;BME280;23787;52.180;5.288;2022-09-09T15:20:50;100470.0;;;18.9;100.0
31532;BME280;23787;52.180;5.288;2022-09-09T15:25:50;100480.0;;;19.2;100.0
31532;BME280;23787;52.180;5.288;2022-09-09T15:30:50;100500.0;;;19.1;100.0
31532;BME280;23787;52.180;5.288;2022-09-09T15:35:50;100490.0;;;19.0;100.0
31532;BME280;23787;52.180;5.288;2022-09-09T15:40:52;100490.0;;;18.5;100.0
31532;BME280;23787;52.180;5.288;2022-09-09T15:45:51;100490.0;;;18.7;100.0
31532;BME280;23787;52.180;5.288;2022-09-09T15:50:51;100490.0;;;18.6;100.0
31532;BME280;23787;52.180;5.288;2022-09-09T15:55:51;100480.0;;;18.8;100.0
31532;BME280;23787;52.180;5.288;2022-09-09T16:00:50;100480.0;;;18.7;100.0
31532;BME280;23787;52.180;5.288;2022-09-09T16:05:50;100490.0;;;18.5;100.0
31532;BME280;23787;52.180;5.288;2022-09-09T16:10:50;100490.0;;;18.9;100.0
31532;BME280;23787;52.180;5.288;2022-09-09T16:15:53;100490.0;;;18.8;100.0
31532;BME280;23787;52.180;5.288;2022-09-09T16:20:53;100490.0;;;18.5;100.0
31532;BME280;23787;52.180;5.288;2022-09-09T16:25:52;100490.0;;;18.4;100.0
31532;BME280;23787;52.180;5.288;2022-09-09T16:30:50;100490.0;;;18.1;100.0
31532;BME280;23787;52.180;5.288;2022-09-09T16:35:50;100490.0;;;18.3;100.0
31532;BME280;23787;52.180;5.288;2022-09-09T16:40:50;100490.0;;;18.4;100.0
31532;BME280;23787;52.180;5.288;2022-09-09T16:45:50;100490.0;;;18.3;100.0
31532;BME280;23787;52.180;5.288;2022-09-09T16:51:12;100500.0;;;18.3;100.0
31532;BME280;23787;52.180;5.288;2022-09-09T16:55:50;100510.0;;;18.1;100.0
31532;BME280;23787;52.180;5.288;2022-09-09T17:00:50;100510.0;;;18.2;100.0
31532;BME280;23787;52.180;5.288;2022-09-09T17:10:50;100520.0;;;18.0;100.0
31532;BME280;23787;52.180;5.288;2022-09-09T17:20:50;100540.0;;;17.9;100.0
31532;BME280;23787;52.180;5.288;2022-09-09T17:30:51;100540.0;;;18.0;100.0
31532;BME280;23787;52.180;5.288;2022-09-09T17:35:50;100540.0;;;17.9;100.0
31532;BME280;23787;52.180;5.288;2022-09-09T17:40:50;100540.0;;;18.0;100.0
31532;BME280;23787;52.180;5.288;2022-09-09T17:50:56;100550.0;;;17.9;100.0
31532;BME280;23787;52.180;5.288;2022-09-09T17:55:50;100550.0;;;17.8;100.0
31532;BME280;23787;52.180;5.288;2022-09-09T18:00:50;100550.0;;;17.9;100.0
31532;BME280;23787;52.180;5.288;2022-09-09T18:05:50;100550.0;;;17.7;100.0
31532;BME280;23787;52.180;5.288;2022-09-09T18:10:51;100570.0;;;17.6;100.0
31532;BME280;23787;52.180;5.288;2022-09-09T18:15:50;100570.0;;;17.8;100.0
31532;BME280;23787;52.180;5.288;2022-09-09T18:20:56;100580.0;;;17.6;100.0
31532;BME280;23787;52.180;5.288;2022-09-09T18:25:50;100580.0;;;17.5;100.0
31532;BME280;23787;52.180;5.288;2022-09-09T18:30:50;100590.0;;;17.3;100.0
31532;BME280;23787;52.180;5.288;2022-09-09T18:35:50;100590.0;;;17.4;100.0
31532;BME280;23787;52.180;5.288;2022-09-09T18:40:50;100610.0;;;17.3;100.0
31532;BME280;23787;52.180;5.288;2022-09-09T18:45:50;100610.0;;;17.2;100.0
31532;BME280;23787;52.180;5.288;2022-09-09T18:55:56;100600.0;;;17.4;100.0
31532;BME280;23787;52.180;5.288;2022-09-09T19:00:50;100610.0;;;17.1;100.0
31532;BME280;23787;52.180;5.288;2022-09-09T19:10:50;100620.0;;;16.9;100.0
31532;BME280;23787;52.180;5.288;2022-09-09T19:20:50;100640.0;;;17.0;100.0
31532;BME280;23787;52.180;5.288;2022-09-09T19:25:50;100640.0;;;16.9;100.0
31532;BME280;23787;52.180;5.288;2022-09-09T19:35:55;100650.0;;;16.8;100.0
31532;BME280;23787;52.180;5.288;2022-09-09T19:55:50;100670.0;;;16.9;100.0
31532;BME280;23787;52.180;5.288;2022-09-09T20:00:50;100670.0;;;16.5;100.0
31532;BME280;23787;52.180;5.288;2022-09-09T20:05:50;100670.0;;;16.6;100.0
31532;BME280;23787;52.180;5.288;2022-09-09T20:20:50;100680.0;;;16.4;100.0
31532;BME280;23787;52.180;5.288;2022-09-09T20:30:50;100680.0;;;16.3;100.0
31532;BME280;23787;52.180;5.288;2022-09-09T20:40:50;100690.0;;;16.1;100.0
31532;BME280;23787;52.180;5.288;2022-09-09T20:45:50;100690.0;;;16.2;100.0
31532;BME280;23787;52.180;5.288;2022-09-09T20:50:50;100690.0;;;16.0;100.0
31532;BME280;23787;52.180;5.288;2022-09-09T21:15:50;100700.0;;;16.1;100.0
31532;BME280;23787;52.180;5.288;2022-09-09T21:30:51;100690.0;;;15.9;100.0
31532;BME280;23787;52.180;5.288;2022-09-09T21:35:50;100690.0;;;16.0;100.0
31532;BME280;23787;52.180;5.288;2022-09-09T21:40:50;100690.0;;;15.9;100.0
31532;BME280;23787;52.180;5.288;2022-09-09T21:45:50;100690.0;;;15.8;100.0
31532;BME280;23787;52.180;5.288;2022-09-09T21:50:50;100690.0;;;15.9;100.0
31532;BME280;23787;52.180;5.288;2022-09-09T22:05:50;100700.0;;;15.6;100.0
31532;BME280;23787;52.180;5.288;2022-09-09T22:10:50;100690.0;;;15.8;100.0
31532;BME280;23787;52.180;5.288;2022-09-09T22:15:50;100700.0;;;15.7;100.0
31532;BME280;23787;52.180;5.288;2022-09-09T22:20:50;100700.0;;;15.8;100.0
31532;BME280;23787;52.180;5.288;2022-09-09T22:30:50;100710.0;;;15.9;100.0
31532;BME280;23787;52.180;5.288;2022-09-09T22:35:50;100710.0;;;15.8;100.0
31532;BME280;23787;52.180;5.288;2022-09-09T23:35:56;100710.0;;;16.0;100.0
31532;BME280;23787;52.180;5.288;2022-09-09T23:45:50;100710.0;;;15.9;100.0
31532;BME280;23787;52.180;5.288;2022-09-09T23:50:50;100710.0;;;16.2;100.0
31532;BME280;23787;52.180;5.288;2022-09-09T23:55:50;100700.0;;;16.0;100.0
